createdAt,value
2023-03-27T00:00:14.160Z,65.8
2023-03-27T00:01:58.407Z,65.1
2023-03-27T00:03:58.389Z,65
2023-03-27T00:05:58.334Z,64.9
2023-03-27T00:07:58.315Z,65
2023-03-27T00:09:58.346Z,65.3
2023-03-27T00:12:16.626Z,65.1
2023-03-27T00:14:14.434Z,65.3
2023-03-27T00:15:58.330Z,65.1
2023-03-27T00:17:58.341Z,65.2
2023-03-27T00:19:58.340Z,65.6
2023-03-27T00:21:58.311Z,65.3
2023-03-27T00:23:58.303Z,65.3
2023-03-27T00:25:58.279Z,65.9
2023-03-27T00:27:58.350Z,65.8
2023-03-27T00:29:58.444Z,65.6
2023-03-27T00:31:58.282Z,65.7
2023-03-27T00:33:58.306Z,65.7
2023-03-27T00:35:58.365Z,65.7
2023-03-27T00:37:58.391Z,65.8
2023-03-27T00:40:09.411Z,65.9
2023-03-27T00:41:58.333Z,65.8
2023-03-27T00:43:58.340Z,65.9
2023-03-27T00:45:58.404Z,65.9
2023-03-27T00:47:58.323Z,65.8
2023-03-27T00:49:58.253Z,66.1
2023-03-27T00:51:58.286Z,66.1
2023-03-27T00:53:58.283Z,66.2
2023-03-27T00:55:58.278Z,66.1
2023-03-27T00:57:58.361Z,66.2
2023-03-27T00:59:58.295Z,66.2
2023-03-27T01:01:58.329Z,66.2
2023-03-27T01:03:58.361Z,66.3
2023-03-27T01:05:59.400Z,66.2
2023-03-27T01:08:00.217Z,66.2
2023-03-27T01:09:59.331Z,66.4
2023-03-27T01:11:58.245Z,66.4
2023-03-27T01:13:58.245Z,66.7
2023-03-27T01:15:58.289Z,66.6
2023-03-27T01:17:58.295Z,66.5
2023-03-27T01:19:58.213Z,66.6
2023-03-27T01:21:58.259Z,66.6
2023-03-27T01:23:59.341Z,66.6
2023-03-27T01:25:58.217Z,66.6
2023-03-27T01:27:58.214Z,66.6
2023-03-27T01:29:58.244Z,66.9
2023-03-27T01:31:58.177Z,66.8
2023-03-27T01:33:58.189Z,66.9
2023-03-27T01:35:58.297Z,67
2023-03-27T01:37:58.196Z,67
2023-03-27T01:39:21.040Z,67
2023-03-27T01:41:32.708Z,67.1
2023-03-27T01:43:50.160Z,67.1
2023-03-27T01:45:50.327Z,67.1
2023-03-27T01:47:58.223Z,67.2
2023-03-27T01:49:58.185Z,67.3
2023-03-27T01:51:58.217Z,67.3
2023-03-27T01:53:58.253Z,67.2
2023-03-27T01:55:58.198Z,67.4
2023-03-27T01:57:58.183Z,67.3
2023-03-27T01:59:58.194Z,67.5
2023-03-27T02:01:58.175Z,67.6
2023-03-27T02:03:15.544Z,67.6
2023-03-27T02:05:19.521Z,67.7
2023-03-27T02:06:33.702Z,67.6
2023-03-27T02:07:46.586Z,67.6
2023-03-27T02:09:58.159Z,67.9
2023-03-27T02:11:58.194Z,67.8
2023-03-27T02:13:58.144Z,68.1
2023-03-27T02:15:58.145Z,67.9
2023-03-27T02:17:58.249Z,67.8
2023-03-27T02:19:58.166Z,68.1
2023-03-27T02:21:58.137Z,68.2
2023-03-27T02:23:58.217Z,68.3
2023-03-27T02:25:58.145Z,68.4
2023-03-27T02:27:58.174Z,68.2
2023-03-27T02:29:58.154Z,68.5
2023-03-27T02:31:58.161Z,69.1
2023-03-27T02:33:58.129Z,68.7
2023-03-27T02:35:58.157Z,68.7
2023-03-27T02:37:58.132Z,68.6
2023-03-27T02:39:31.067Z,68.6
2023-03-27T02:41:58.135Z,68.8
2023-03-27T02:43:58.181Z,69
2023-03-27T02:45:58.122Z,68.7
2023-03-27T02:47:58.189Z,68.9
2023-03-27T02:49:03.760Z,68.9
2023-03-27T02:51:58.192Z,68.9
2023-03-27T02:53:58.101Z,69
2023-03-27T02:55:35.170Z,69
2023-03-27T02:57:58.115Z,69.1
2023-03-27T02:59:58.198Z,69.2
2023-03-27T03:01:58.172Z,69.1
2023-03-27T03:03:58.127Z,69.1
2023-03-27T03:05:58.142Z,69.2
2023-03-27T03:07:58.196Z,69.1
2023-03-27T03:09:58.110Z,69.3
2023-03-27T03:11:58.086Z,69.2
2023-03-27T03:13:58.218Z,69.4
2023-03-27T03:15:58.182Z,69.3
2023-03-27T03:17:58.165Z,69.4
2023-03-27T03:19:58.246Z,69.4
2023-03-27T03:21:49.992Z,69.4
2023-03-27T03:23:59.019Z,69.5
2023-03-27T03:25:00.769Z,69.5
2023-03-27T03:25:58.160Z,69.4
2023-03-27T03:27:58.136Z,69.5
2023-03-27T03:29:58.168Z,69.7
2023-03-27T03:30:35.266Z,69.7
2023-03-27T03:31:58.132Z,69.8
2023-03-27T03:32:41.918Z,69.8
2023-03-27T03:33:58.086Z,69.6
2023-03-27T03:36:33.451Z,69.7
2023-03-27T03:37:50.928Z,69.7
2023-03-27T03:41:57.416Z,70
2023-03-27T03:43:58.097Z,70
2023-03-27T03:46:12.374Z,70.1
2023-03-27T03:47:58.092Z,70
2023-03-27T03:49:58.148Z,70.1
2023-03-27T03:52:04.025Z,70
2023-03-27T03:53:58.092Z,70
2023-03-27T03:55:58.172Z,70
2023-03-27T03:57:58.114Z,69.9
2023-03-27T03:59:58.168Z,70.1
2023-03-27T04:01:58.146Z,70.1
2023-03-27T04:03:58.170Z,70
2023-03-27T04:05:58.072Z,70.1
2023-03-27T04:07:58.123Z,70.1
2023-03-27T04:09:58.118Z,70.3
2023-03-27T04:11:58.110Z,70.3
2023-03-27T04:13:58.089Z,70.4
2023-03-27T04:15:17.686Z,70.4
2023-03-27T04:17:58.205Z,70.4
2023-03-27T04:19:43.538Z,70.4
2023-03-27T04:21:28.749Z,70.6
2023-03-27T04:23:58.113Z,70.7
2023-03-27T04:25:58.073Z,70.7
2023-03-27T04:27:58.020Z,71
2023-03-27T04:29:58.038Z,70.9
2023-03-27T04:31:58.258Z,71.1
2023-03-27T04:33:58.058Z,71
2023-03-27T04:36:05.789Z,71.7
2023-03-27T04:38:20.776Z,71.1
2023-03-27T04:39:58.154Z,71.2
2023-03-27T04:41:58.079Z,71.4
2023-03-27T04:43:58.096Z,71.1
2023-03-27T04:45:58.092Z,70.9
2023-03-27T04:47:58.036Z,70.9
2023-03-27T04:49:58.058Z,71.1
2023-03-27T04:51:58.022Z,71
2023-03-27T04:53:58.087Z,71.1
2023-03-27T04:55:58.097Z,71.1
2023-03-27T04:57:58.028Z,71.1
2023-03-27T04:59:58.070Z,71.3
2023-03-27T05:01:58.043Z,71.2
2023-03-27T05:03:58.067Z,71.1
2023-03-27T05:05:58.022Z,71.1
2023-03-27T05:07:58.006Z,71.1
2023-03-27T05:09:58.000Z,71.2
2023-03-27T05:11:57.992Z,71.2
2023-03-27T05:13:58.132Z,71.2
2023-03-27T05:15:58.086Z,71.3
2023-03-27T05:17:58.137Z,71.2
2023-03-27T05:19:58.041Z,71.2
2023-03-27T05:21:58.026Z,71.3
2023-03-27T05:23:58.020Z,71.2
2023-03-27T05:25:59.551Z,71.2
2023-03-27T05:27:58.044Z,71.2
2023-03-27T05:29:57.966Z,71.2
2023-03-27T05:31:03.539Z,71.2
2023-03-27T05:33:31.067Z,71.6
2023-03-27T05:35:59.509Z,72
2023-03-27T05:37:57.931Z,72
2023-03-27T05:39:57.990Z,71.8
2023-03-27T05:41:57.990Z,72.1
2023-03-27T05:43:57.990Z,71.8
2023-03-27T05:45:57.981Z,71.8
2023-03-27T05:47:57.939Z,71.9
2023-03-27T05:49:58.026Z,71.9
2023-03-27T05:51:57.947Z,71.8
2023-03-27T05:53:57.928Z,72.4
2023-03-27T05:56:02.302Z,71.9
2023-03-27T05:57:57.994Z,71.9
2023-03-27T05:59:14.620Z,71.9
2023-03-27T06:00:28.653Z,71.9
2023-03-27T06:01:57.948Z,71.8
2023-03-27T06:03:57.935Z,71.9
2023-03-27T06:05:57.964Z,71.8
2023-03-27T06:07:57.989Z,71.8
2023-03-27T06:09:57.923Z,71.9
2023-03-27T06:11:57.941Z,71.8
2023-03-27T06:13:58.667Z,71.7
2023-03-27T06:14:22.724Z,71.7
2023-03-27T06:15:58.002Z,71.7
2023-03-27T06:19:57.939Z,71.9
2023-03-27T06:21:18.111Z,71.9
2023-03-27T06:22:20.519Z,72.4
2023-03-27T06:23:57.908Z,72
2023-03-27T06:25:36.989Z,72
2023-03-27T06:27:57.991Z,71.9
2023-03-27T06:29:57.882Z,72
2023-03-27T06:31:58.024Z,72.2
2023-03-27T06:33:57.994Z,72
2023-03-27T06:35:58.096Z,72.1
2023-03-27T06:37:10.296Z,72.1
2023-03-27T06:39:57.955Z,72.2
2023-03-27T06:41:57.874Z,72.2
2023-03-27T06:43:57.879Z,72.2
2023-03-27T06:45:58.098Z,72.2
2023-03-27T06:48:00.194Z,72.5
2023-03-27T06:49:57.860Z,72.2
2023-03-27T06:51:57.919Z,72.2
2023-03-27T06:53:57.942Z,72.1
2023-03-27T06:55:58.180Z,72.3
2023-03-27T06:58:28.290Z,72.3
2023-03-27T06:59:41.686Z,72.3
2023-03-27T07:01:57.924Z,72.2
2023-03-27T07:03:57.943Z,72.2
2023-03-27T07:05:58.217Z,72.4
2023-03-27T07:07:58.304Z,72.3
2023-03-27T07:09:57.983Z,72.3
2023-03-27T07:11:57.890Z,73.1
2023-03-27T07:13:57.875Z,72.7
2023-03-27T07:15:04.446Z,72.7
2023-03-27T07:17:58.032Z,72.7
2023-03-27T07:19:57.897Z,72.5
2023-03-27T07:22:37.305Z,72.5
2023-03-27T07:23:57.974Z,72.7
2023-03-27T07:25:58.048Z,72.9
2023-03-27T07:27:57.877Z,73.5
2023-03-27T07:29:57.854Z,72.9
2023-03-27T07:31:59.673Z,73
2023-03-27T07:33:58.007Z,73
2023-03-27T07:36:35.196Z,72.7
2023-03-27T07:37:57.862Z,72.6
2023-03-27T07:40:26.571Z,72.8
2023-03-27T07:41:57.838Z,73
2023-03-27T07:43:57.795Z,72.9
2023-03-27T07:45:58.030Z,72.8
2023-03-27T07:47:57.818Z,73
2023-03-27T07:49:57.778Z,72.7
2023-03-27T07:51:57.800Z,72.7
2023-03-27T07:53:57.795Z,72.8
2023-03-27T07:55:57.912Z,72.8
2023-03-27T07:58:02.164Z,72.8
2023-03-27T07:59:57.821Z,72.8
2023-03-27T08:01:57.807Z,72.8
2023-03-27T08:03:57.936Z,73.9
2023-03-27T08:05:58.120Z,73.8
2023-03-27T08:07:57.813Z,73.3
2023-03-27T08:09:57.780Z,73
2023-03-27T08:11:57.794Z,73.3
2023-03-27T08:13:57.718Z,73.3
2023-03-27T08:15:57.923Z,73.4
2023-03-27T08:17:57.850Z,73.6
2023-03-27T08:19:57.860Z,73.2
2023-03-27T08:21:57.803Z,73.2
2023-03-27T08:23:57.940Z,73.1
2023-03-27T08:25:57.926Z,73.5
2023-03-27T08:27:57.814Z,73.5
2023-03-27T08:29:57.802Z,73.2
2023-03-27T08:31:57.753Z,73.1
2023-03-27T08:33:26.073Z,73.1
2023-03-27T08:35:57.978Z,73.4
2023-03-27T08:37:57.724Z,73.3
2023-03-27T08:39:57.732Z,73.2
2023-03-27T08:41:57.739Z,73.2
2023-03-27T08:43:02.420Z,73.2
2023-03-27T08:44:21.446Z,73.4
2023-03-27T08:45:57.965Z,73.2
2023-03-27T08:47:57.716Z,73.1
2023-03-27T08:49:57.781Z,73.2
2023-03-27T08:51:40.863Z,73.2
2023-03-27T08:53:57.911Z,73.3
2023-03-27T08:55:58.177Z,74.1
2023-03-27T08:57:57.698Z,73.8
2023-03-27T08:59:57.825Z,73.6
2023-03-27T09:01:57.793Z,73.4
2023-03-27T09:03:57.769Z,73.5
2023-03-27T09:05:57.995Z,73.3
2023-03-27T09:07:57.708Z,73.4
2023-03-27T09:09:04.111Z,73.4
2023-03-27T09:11:57.805Z,73.3
2023-03-27T09:13:55.756Z,73.3
2023-03-27T09:15:54.255Z,73.4
2023-03-27T09:15:57.825Z,73.4
2023-03-27T09:17:57.920Z,73.4
2023-03-27T09:19:57.681Z,73.3
2023-03-27T09:21:57.698Z,73.4
2023-03-27T09:23:57.832Z,73.3
2023-03-27T09:25:57.867Z,73.6
2023-03-27T09:27:57.753Z,73.5
2023-03-27T09:30:04.774Z,73.4
2023-03-27T09:31:57.756Z,73.5
2023-03-27T09:33:57.774Z,73.4
2023-03-27T09:35:57.892Z,73.4
2023-03-27T09:37:42.303Z,73.4
2023-03-27T09:39:57.747Z,73.7
2023-03-27T09:41:22.142Z,73.7
2023-03-27T09:42:45.261Z,73.7
2023-03-27T09:43:57.733Z,73.8
2023-03-27T09:46:15.557Z,73.7
2023-03-27T09:47:57.898Z,73.6
2023-03-27T09:49:57.723Z,73.6
2023-03-27T09:51:57.851Z,74.1
2023-03-27T09:53:57.718Z,74.9
2023-03-27T09:55:57.702Z,74.3
2023-03-27T09:57:57.736Z,74.5
2023-03-27T09:59:57.709Z,74.1
2023-03-27T10:01:57.702Z,74.5
2023-03-27T10:03:57.753Z,75
2023-03-27T10:05:57.681Z,74.6
2023-03-27T10:07:57.637Z,74
2023-03-27T10:09:57.606Z,74.1
2023-03-27T10:11:38.740Z,74.1
2023-03-27T10:13:28.836Z,74.4
2023-03-27T10:16:27.205Z,74.4
2023-03-27T10:17:57.688Z,74.2
2023-03-27T10:19:48.948Z,74.2
2023-03-27T10:21:57.650Z,74.3
2023-03-27T10:23:56.516Z,74.3
2023-03-27T10:23:57.556Z,74.2
2023-03-27T10:25:57.633Z,74.7
2023-03-27T10:27:57.553Z,74.4
2023-03-27T10:29:57.595Z,74.2
2023-03-27T10:31:58.805Z,74.4
2023-03-27T10:33:57.551Z,74.5
2023-03-27T10:35:57.567Z,74.6
2023-03-27T10:37:57.557Z,74.9
2023-03-27T10:39:58.895Z,74.6
2023-03-27T10:41:57.543Z,74.7
2023-03-27T10:43:57.544Z,75.3
2023-03-27T10:45:57.555Z,75.4
2023-03-27T10:47:57.596Z,75.2
2023-03-27T10:49:49.812Z,75.2
2023-03-27T10:51:12.561Z,74.8
2023-03-27T10:51:57.548Z,75
2023-03-27T10:53:57.664Z,74.9
2023-03-27T10:55:06.005Z,74.9
2023-03-27T10:57:57.541Z,74.8
2023-03-27T10:59:57.534Z,74.8
2023-03-27T11:02:53.678Z,74.6
2023-03-27T11:04:09.512Z,74.6
2023-03-27T11:05:57.526Z,74.7
2023-03-27T11:07:57.525Z,75.1
2023-03-27T11:09:57.582Z,74.8
2023-03-27T11:11:57.536Z,75.1
2023-03-27T11:13:57.504Z,75
2023-03-27T11:15:57.522Z,74.8
2023-03-27T11:17:57.521Z,74.9
2023-03-27T11:19:57.518Z,74.7
2023-03-27T11:21:57.505Z,74.5
2023-03-27T11:23:57.525Z,74.5
2023-03-27T11:25:57.500Z,74.5
2023-03-27T11:28:39.643Z,74.6
2023-03-27T11:29:57.505Z,74.5
2023-03-27T11:31:57.514Z,74.7
2023-03-27T11:33:57.476Z,75
2023-03-27T11:35:57.545Z,74.9
2023-03-27T11:37:57.489Z,74.9
2023-03-27T11:39:57.521Z,74.9
2023-03-27T11:41:57.541Z,75.3
2023-03-27T11:43:18.711Z,75.3
2023-03-27T11:45:57.498Z,75.3
2023-03-27T11:47:57.708Z,75.1
2023-03-27T11:49:57.526Z,75
2023-03-27T11:51:57.555Z,75
2023-03-27T11:53:57.451Z,75.1
2023-03-27T11:55:57.470Z,75
2023-03-27T11:57:57.466Z,74.9
2023-03-27T11:59:57.493Z,75
2023-03-27T12:01:57.456Z,74.8
2023-03-27T12:03:57.603Z,75
2023-03-27T12:06:22.886Z,74.8
2023-03-27T12:07:57.431Z,75.1
2023-03-27T12:10:10.139Z,75.1
2023-03-27T12:11:57.435Z,75.3
2023-03-27T12:14:01.441Z,75.4
2023-03-27T12:15:57.460Z,75.9
2023-03-27T12:17:57.593Z,75.5
2023-03-27T12:19:57.483Z,75.1
2023-03-27T12:21:57.490Z,75.4
2023-03-27T12:23:57.492Z,75.8
2023-03-27T12:25:57.481Z,76.1
2023-03-27T12:27:57.468Z,76.6
2023-03-27T12:29:57.466Z,76.6
2023-03-27T12:31:57.479Z,76.2
2023-03-27T12:33:57.446Z,76.1
2023-03-27T12:35:57.537Z,76.2
2023-03-27T12:38:30.386Z,76.2
2023-03-27T12:39:36.996Z,76.2
2023-03-27T12:41:22.534Z,77.8
2023-03-27T12:42:24.704Z,76.4
2023-03-27T12:43:57.476Z,76.2
2023-03-27T12:45:57.446Z,76.2
2023-03-27T12:47:57.459Z,76.6
2023-03-27T12:49:57.420Z,76.8
2023-03-27T12:51:57.437Z,76.6
2023-03-27T12:53:57.416Z,76.6
2023-03-27T12:55:15.007Z,76.6
2023-03-27T12:57:57.709Z,77.1
2023-03-27T12:59:57.410Z,76.8
2023-03-27T13:01:57.444Z,77.2
2023-03-27T13:03:57.520Z,77.2
2023-03-27T13:05:57.440Z,78
2023-03-27T13:07:57.444Z,78.3
2023-03-27T13:09:57.443Z,77.4
2023-03-27T13:11:57.426Z,77.2
2023-03-27T13:13:57.381Z,78.4
2023-03-27T13:15:57.667Z,78
2023-03-27T13:17:57.440Z,77.6
2023-03-27T13:19:57.484Z,78
2023-03-27T13:21:57.497Z,78
2023-03-27T13:23:36.828Z,78
2023-03-27T13:25:57.770Z,77.8
2023-03-27T13:27:57.418Z,77.5
2023-03-27T13:28:47.739Z,77.5
2023-03-27T13:29:57.536Z,77.3
2023-03-27T13:31:57.451Z,77.6
2023-03-27T13:33:57.429Z,78.2
2023-03-27T13:35:57.725Z,78.3
2023-03-27T13:37:57.474Z,79.1
2023-03-27T13:39:57.552Z,79.1
2023-03-27T13:41:58.198Z,79.2
2023-03-27T13:43:57.462Z,78.3
2023-03-27T13:45:57.695Z,78.1
2023-03-27T13:47:57.490Z,78.4
2023-03-27T13:49:57.461Z,78.2
2023-03-27T13:51:57.471Z,77.9
2023-03-27T13:53:57.476Z,78
2023-03-27T13:55:57.562Z,78.1
2023-03-27T13:57:09.701Z,78.1
2023-03-27T13:59:57.487Z,77.8
2023-03-27T14:01:57.454Z,77.5
2023-03-27T14:03:57.477Z,77.2
2023-03-27T14:05:57.508Z,77.2
2023-03-27T14:07:57.392Z,77.6
2023-03-27T14:09:57.323Z,77
2023-03-27T14:11:57.382Z,77
2023-03-27T14:13:57.322Z,77.9
2023-03-27T14:15:12.882Z,77.9
2023-03-27T14:17:57.471Z,77.5
2023-03-27T14:19:57.341Z,77.4
2023-03-27T14:21:57.342Z,77
2023-03-27T14:23:57.351Z,76.7
2023-03-27T14:25:17.164Z,76.7
2023-03-27T14:27:57.338Z,76.6
2023-03-27T14:29:57.327Z,76.3
2023-03-27T14:31:57.375Z,75.4
2023-03-27T14:33:57.333Z,75.3
2023-03-27T14:36:34.685Z,75.8
2023-03-27T14:37:59.726Z,75.6
2023-03-27T14:39:57.425Z,75.8
2023-03-27T14:42:07.845Z,75.3
2023-03-27T14:43:57.344Z,75.8
2023-03-27T14:45:57.588Z,76
2023-03-27T14:47:57.379Z,75.7
2023-03-27T14:49:57.367Z,75.5
2023-03-27T14:51:57.462Z,75.2
2023-03-27T14:54:01.629Z,75.7
2023-03-27T14:55:57.537Z,75.2
2023-03-27T14:57:57.400Z,75.4
2023-03-27T14:59:57.379Z,75.7
2023-03-27T15:01:42.444Z,75.7
2023-03-27T15:03:57.420Z,75.3
2023-03-27T15:05:57.730Z,75.5
2023-03-27T15:07:57.402Z,75.8
2023-03-27T15:09:57.370Z,75.5
2023-03-27T15:11:57.366Z,75.5
2023-03-27T15:13:57.385Z,75.9
2023-03-27T15:16:21.156Z,75.9
2023-03-27T15:18:34.256Z,76
2023-03-27T15:19:57.364Z,76.3
2023-03-27T15:21:59.751Z,76.1
2023-03-27T15:23:57.360Z,76.8
2023-03-27T15:24:42.400Z,76.8
2023-03-27T15:25:57.437Z,76.6
2023-03-27T15:27:50.964Z,76.6
2023-03-27T15:30:20.066Z,76.8
2023-03-27T15:32:07.644Z,76.6
2023-03-27T15:33:57.365Z,76.6
2023-03-27T15:36:17.441Z,76.9
2023-03-27T15:37:57.328Z,77.4
2023-03-27T15:39:57.343Z,77.4
2023-03-27T15:41:57.325Z,77.5
2023-03-27T15:44:19.783Z,77.7
2023-03-27T15:45:57.500Z,78.1
2023-03-27T15:47:57.348Z,78.1
2023-03-27T15:49:57.321Z,78.2
2023-03-27T15:51:57.348Z,77.1
2023-03-27T15:53:57.305Z,77.8
2023-03-27T15:55:57.539Z,77.5
2023-03-27T15:57:57.282Z,77.3
2023-03-27T15:59:57.369Z,77.2
2023-03-27T16:01:57.318Z,76.9
2023-03-27T16:03:58.786Z,77.2
2023-03-27T16:05:57.477Z,77.7
2023-03-27T16:07:57.324Z,77.2
2023-03-27T16:09:57.380Z,76.9
2023-03-27T16:12:03.171Z,76.8
2023-03-27T16:14:20.274Z,76.9
2023-03-27T16:15:56.370Z,76.9
2023-03-27T16:17:57.330Z,77
2023-03-27T16:19:57.310Z,76.7
2023-03-27T16:21:57.485Z,76.7
2023-03-27T16:23:57.242Z,76.8
2023-03-27T16:25:57.362Z,76.9
2023-03-27T16:27:57.358Z,76.8
2023-03-27T16:30:20.290Z,77
2023-03-27T16:32:14.377Z,76.7
2023-03-27T16:33:57.266Z,76.8
2023-03-27T16:35:57.493Z,77
2023-03-27T16:37:57.312Z,77
2023-03-27T16:39:57.339Z,77.6
2023-03-27T16:41:57.271Z,77.7
2023-03-27T16:43:57.243Z,77.9
2023-03-27T16:45:57.663Z,77.6
2023-03-27T16:47:57.331Z,77.5
2023-03-27T16:50:10.717Z,77.2
2023-03-27T16:51:57.260Z,77
2023-03-27T16:53:57.317Z,77.1
2023-03-27T16:55:57.456Z,77.5
2023-03-27T16:57:57.299Z,76.8
2023-03-27T16:59:57.304Z,76.5
2023-03-27T17:01:57.256Z,76.1
2023-03-27T17:03:57.260Z,76.3
2023-03-27T17:05:57.402Z,75.8
2023-03-27T17:07:57.226Z,75.9
2023-03-27T17:10:37.859Z,75.5
2023-03-27T17:11:57.225Z,74.6
2023-03-27T17:13:57.251Z,74.6
2023-03-27T17:15:57.609Z,75.1
2023-03-27T17:17:57.252Z,75.1
2023-03-27T17:19:57.217Z,75.1
2023-03-27T17:21:57.256Z,74.8
2023-03-27T17:23:57.157Z,74.6
2023-03-27T17:25:57.340Z,74.5
2023-03-27T17:27:57.274Z,74.4
2023-03-27T17:29:57.191Z,74
2023-03-27T17:31:57.192Z,73.4
2023-03-27T17:33:57.192Z,73.7
2023-03-27T17:35:57.564Z,72.8
2023-03-27T17:37:57.240Z,72.6
2023-03-27T17:39:57.191Z,72.7
2023-03-27T17:41:57.166Z,71.9
2023-03-27T17:43:57.320Z,72.3
2023-03-27T17:45:57.506Z,72.2
2023-03-27T17:47:57.248Z,71.9
2023-03-27T17:49:57.175Z,72.1
2023-03-27T17:51:57.205Z,72.3
2023-03-27T17:53:57.218Z,72.4
2023-03-27T17:55:57.392Z,72.5
2023-03-27T17:58:08.133Z,72.7
2023-03-27T17:59:57.171Z,72
2023-03-27T18:01:27.859Z,72
2023-03-27T18:03:40.973Z,71.8
2023-03-27T18:04:46.839Z,71.8
2023-03-27T18:05:57.392Z,71.2
2023-03-27T18:07:57.120Z,71.1
2023-03-27T18:09:57.179Z,71.5
2023-03-27T18:11:57.200Z,70.4
2023-03-27T18:13:57.121Z,70.7
2023-03-27T18:15:57.649Z,70.6
2023-03-27T18:17:32.332Z,70.6
2023-03-27T18:20:22.379Z,69.1
2023-03-27T18:21:57.162Z,69
2023-03-27T18:23:57.105Z,69.5
2023-03-27T18:25:57.339Z,69.1
2023-03-27T18:27:57.169Z,68.9
2023-03-27T18:30:43.297Z,69.1
2023-03-27T18:31:57.142Z,68.6
2023-03-27T18:33:57.195Z,68.9
2023-03-27T18:35:57.375Z,67.6
2023-03-27T18:37:57.200Z,67.7
2023-03-27T18:39:57.126Z,67.8
2023-03-27T18:41:47.023Z,67.8
2023-03-27T18:43:06.063Z,67.6
2023-03-27T18:45:57.587Z,67.9
2023-03-27T18:47:57.129Z,67.4
2023-03-27T18:49:50.374Z,67.4
2023-03-27T18:51:24.998Z,67
2023-03-27T18:53:57.110Z,67.2
2023-03-27T18:55:57.261Z,67.4
2023-03-27T18:57:57.024Z,67.5
2023-03-27T18:59:57.002Z,66.9
2023-03-27T19:01:57.131Z,65.8
2023-03-27T19:03:57.242Z,66
2023-03-27T19:05:57.267Z,66.3
2023-03-27T19:07:57.058Z,65.5
2023-03-27T19:09:57.118Z,65.4
2023-03-27T19:11:57.059Z,64.6
2023-03-27T19:14:04.208Z,64
2023-03-27T19:15:57.097Z,64.2
2023-03-27T19:17:57.086Z,64.5
2023-03-27T19:19:57.102Z,63.9
2023-03-27T19:21:57.113Z,63.7
2023-03-27T19:23:57.022Z,63.6
2023-03-27T19:25:57.095Z,63.7
2023-03-27T19:27:45.378Z,63.7
2023-03-27T19:29:57.066Z,63.9
2023-03-27T19:31:57.115Z,63.2
2023-03-27T19:33:57.013Z,62.8
2023-03-27T19:35:57.128Z,62.7
2023-03-27T19:37:57.205Z,63.3
2023-03-27T19:39:57.098Z,62.3
2023-03-27T19:41:57.056Z,61.8
2023-03-27T19:43:58.960Z,62.2
2023-03-27T19:46:04.695Z,61.8
2023-03-27T19:47:03.562Z,61.8
2023-03-27T19:49:57.074Z,62.2
2023-03-27T19:51:57.099Z,61.7
2023-03-27T19:53:57.011Z,62.2
2023-03-27T19:55:57.050Z,62.4
2023-03-27T19:57:57.040Z,62.2
2023-03-27T20:00:01.226Z,60.2
2023-03-27T20:01:57.107Z,60
2023-03-27T20:03:57.206Z,60.5
2023-03-27T20:06:06.343Z,61.1
2023-03-27T20:07:57.053Z,61.3
2023-03-27T20:09:57.098Z,61.4
2023-03-27T20:11:57.048Z,60.7
2023-03-27T20:13:57.306Z,61.2
2023-03-27T20:15:57.207Z,61.6
2023-03-27T20:17:57.052Z,61.8
2023-03-27T20:19:57.076Z,60.7
2023-03-27T20:23:57.067Z,61.5
2023-03-27T20:25:57.120Z,61.1
2023-03-27T20:27:57.090Z,61.3
2023-03-27T20:30:06.240Z,60.2
2023-03-27T20:31:57.022Z,60.7
2023-03-27T20:33:57.043Z,61.3
2023-03-27T20:35:57.050Z,61.5
2023-03-27T20:37:57.003Z,61.6
2023-03-27T20:39:57.043Z,61.9
2023-03-27T20:41:36.177Z,61.9
2023-03-27T20:43:56.974Z,62.7
2023-03-27T20:46:10.798Z,61.7
2023-03-27T20:47:57.094Z,62
2023-03-27T20:49:56.948Z,61.2
2023-03-27T20:51:57.060Z,62
2023-03-27T20:53:56.942Z,61.5
2023-03-27T20:55:26.738Z,61.5
2023-03-27T20:56:40.947Z,61.3
2023-03-27T20:57:56.978Z,60.5
2023-03-27T20:59:56.993Z,60.4
2023-03-27T21:01:56.974Z,60.8
2023-03-27T21:03:56.938Z,61.1
2023-03-27T21:05:57.178Z,60.2
2023-03-27T21:07:41.184Z,60.2
2023-03-27T21:09:56.983Z,61.1
2023-03-27T21:11:56.937Z,61
2023-03-27T21:13:57.022Z,60.6
2023-03-27T21:15:57.053Z,61.3
2023-03-27T21:17:56.988Z,60.8
2023-03-27T21:19:57.000Z,62
2023-03-27T21:21:56.982Z,62
2023-03-27T21:23:59.502Z,61.9
2023-03-27T21:25:57.176Z,61.1
2023-03-27T21:27:20.411Z,61.1
2023-03-27T21:28:34.058Z,61.3
2023-03-27T21:29:56.999Z,61.8
2023-03-27T21:31:56.898Z,61.8
2023-03-27T21:33:56.871Z,61.5
2023-03-27T21:35:57.080Z,61.4
2023-03-27T21:37:56.857Z,61.3
2023-03-27T21:39:56.902Z,61.7
2023-03-27T21:41:56.843Z,61.6
2023-03-27T21:43:56.918Z,61.3
2023-03-27T21:45:11.903Z,61.3
2023-03-27T21:47:56.880Z,61.6
2023-03-27T21:49:56.949Z,61.6
2023-03-27T21:51:22.281Z,61.6
2023-03-27T21:53:56.935Z,61.6
2023-03-27T21:55:57.125Z,61.2
2023-03-27T21:57:56.848Z,61.2
2023-03-27T21:59:56.859Z,61.4
2023-03-27T22:01:57.040Z,61.8
2023-03-27T22:03:56.824Z,61.9
2023-03-27T22:06:08.303Z,62.1
2023-03-27T22:07:56.848Z,62.4
2023-03-27T22:09:56.920Z,61.9
2023-03-27T22:11:56.940Z,61.9
2023-03-27T22:13:56.903Z,62.4
2023-03-27T22:15:57.074Z,62.3
2023-03-27T22:17:57.005Z,62.3
2023-03-27T22:19:56.928Z,62
2023-03-27T22:21:56.896Z,62.2
2023-03-27T22:23:56.931Z,62
2023-03-27T22:25:57.045Z,61.6
2023-03-27T22:27:56.774Z,62.2
2023-03-27T22:29:56.819Z,62.3
2023-03-27T22:31:56.814Z,62.2
2023-03-27T22:33:56.828Z,62.2
2023-03-27T22:35:56.999Z,62.5
2023-03-27T22:37:56.832Z,62.2
2023-03-27T22:39:56.829Z,62.3
2023-03-27T22:41:56.894Z,62.5
2023-03-27T22:43:56.781Z,62.5
2023-03-27T22:45:56.954Z,62.7
2023-03-27T22:47:56.833Z,62.5
2023-03-27T22:49:56.776Z,62.8
2023-03-27T22:51:56.774Z,62.7
2023-03-27T22:53:53.822Z,62.7
2023-03-27T22:54:53.817Z,62.8
2023-03-27T22:55:57.369Z,63.1
2023-03-27T22:57:22.955Z,63.1
2023-03-27T22:59:56.834Z,63.5
2023-03-27T23:01:56.852Z,63.7
2023-03-27T23:03:56.837Z,63.6
2023-03-27T23:05:57.228Z,64
2023-03-27T23:07:56.750Z,64
2023-03-27T23:09:56.814Z,64
2023-03-27T23:11:56.767Z,64.3
2023-03-27T23:13:56.822Z,64.3
2023-03-27T23:15:56.930Z,64.4
2023-03-27T23:17:56.835Z,64.7
2023-03-27T23:19:56.750Z,64.7
2023-03-27T23:21:56.762Z,65
2023-03-27T23:23:41.541Z,65
2023-03-27T23:25:56.841Z,65
2023-03-27T23:27:56.805Z,65
2023-03-27T23:29:56.737Z,65.2
2023-03-27T23:31:56.812Z,65.3
2023-03-27T23:33:56.728Z,65.7
2023-03-27T23:35:56.848Z,65.8
2023-03-27T23:37:56.774Z,65.8
2023-03-27T23:39:56.682Z,65.6
2023-03-27T23:41:56.726Z,65.8
2023-03-27T23:43:56.761Z,65.8
2023-03-27T23:45:56.766Z,65.8
2023-03-27T23:47:56.819Z,65.7
2023-03-27T23:49:56.754Z,66.1
2023-03-27T23:51:56.688Z,66.4
2023-03-27T23:53:56.797Z,66.1
2023-03-27T23:55:56.747Z,66.1
2023-03-27T23:57:56.822Z,66.4
2023-03-27T23:59:56.709Z,66.1
